East Keating, Pennsylvania
Current Conditions -  °F | °C
As of 12:54 PM on Wednesday 26 Nov 2014 (Local Time) from KFIG Reporting Station
Light Snow Light Snow  
Wind Chill: 26°   Ceiling: 400
Heat Index: 31°   Visibility: 0.75mi
Dew Point: 30°   Wind: 5mph
Humidity: 96%   Direction: 30°NNE
Pressure: 30.02"   Gusts: NA
Location:  41.3342°N, 77.9676°W
Report Text: KFIG 261754Z AUTO 03004KT 3/4SM -SN BR BKN004 OVC011 M01/M01 A3002 RMK AO2 SLP180 P0003 60004 T10061011 10000 21011 56020
Loading
Personal Weather Stations






























Interactive Weather Map New forecast layout! Learn more

10-Day Weather Forecast

Advertisements
Track Severe Weather on mobile